sensor_id;sensor_type;location;lat;lon;timestamp;P1;durP1;ratioP1;P2;durP2;ratioP2
20073;SDS011;10197;54.282;10.078;2023-05-10T00:00:53;8.85;;;3.22;;
20073;SDS011;10197;54.282;10.078;2023-05-10T00:03:20;7.22;;;3.88;;
20073;SDS011;10197;54.282;10.078;2023-05-10T00:05:47;5.15;;;3.53;;
20073;SDS011;10197;54.282;10.078;2023-05-10T00:08:14;4.97;;;3.60;;
20073;SDS011;10197;54.282;10.078;2023-05-10T00:10:42;7.30;;;3.78;;
20073;SDS011;10197;54.282;10.078;2023-05-10T00:13:09;9.18;;;3.92;;
20073;SDS011;10197;54.282;10.078;2023-05-10T00:15:36;5.25;;;3.53;;
20073;SDS011;10197;54.282;10.078;2023-05-10T00:18:03;5.18;;;2.90;;
20073;SDS011;10197;54.282;10.078;2023-05-10T00:20:30;5.38;;;3.45;;
20073;SDS011;10197;54.282;10.078;2023-05-10T00:22:56;6.53;;;3.38;;
20073;SDS011;10197;54.282;10.078;2023-05-10T00:25:23;4.10;;;3.55;;
20073;SDS011;10197;54.282;10.078;2023-05-10T00:27:52;3.80;;;3.35;;
20073;SDS011;10197;54.282;10.078;2023-05-10T00:30:20;5.03;;;3.85;;
20073;SDS011;10197;54.282;10.078;2023-05-10T00:32:48;4.15;;;3.28;;
20073;SDS011;10197;54.282;10.078;2023-05-10T00:35:16;5.00;;;3.80;;
20073;SDS011;10197;54.282;10.078;2023-05-10T00:37:43;4.50;;;3.42;;
20073;SDS011;10197;54.282;10.078;2023-05-10T00:40:11;4.43;;;3.60;;
20073;SDS011;10197;54.282;10.078;2023-05-10T00:42:39;5.60;;;3.78;;
20073;SDS011;10197;54.282;10.078;2023-05-10T00:45:08;5.30;;;3.65;;
20073;SDS011;10197;54.282;10.078;2023-05-10T00:47:35;6.65;;;3.33;;
20073;SDS011;10197;54.282;10.078;2023-05-10T00:50:03;5.72;;;3.80;;
20073;SDS011;10197;54.282;10.078;2023-05-10T00:52:33;8.27;;;3.80;;
20073;SDS011;10197;54.282;10.078;2023-05-10T00:55:00;10.70;;;3.70;;
20073;SDS011;10197;54.282;10.078;2023-05-10T00:57:29;7.28;;;3.78;;
20073;SDS011;10197;54.282;10.078;2023-05-10T00:59:59;5.95;;;3.75;;
20073;SDS011;10197;54.282;10.078;2023-05-10T01:02:30;5.70;;;3.88;;
20073;SDS011;10197;54.282;10.078;2023-05-10T01:04:56;4.88;;;3.70;;
20073;SDS011;10197;54.282;10.078;2023-05-10T01:07:23;3.75;;;3.40;;
20073;SDS011;10197;54.282;10.078;2023-05-10T01:09:50;5.00;;;3.75;;
20073;SDS011;10197;54.282;10.078;2023-05-10T01:12:17;6.78;;;3.80;;
20073;SDS011;10197;54.282;10.078;2023-05-10T01:14:44;4.63;;;3.63;;
20073;SDS011;10197;54.282;10.078;2023-05-10T01:17:11;5.35;;;3.75;;
20073;SDS011;10197;54.282;10.078;2023-05-10T01:19:40;4.78;;;3.75;;
20073;SDS011;10197;54.282;10.078;2023-05-10T01:22:11;6.03;;;3.63;;
20073;SDS011;10197;54.282;10.078;2023-05-10T01:24:54;7.32;;;4.25;;
20073;SDS011;10197;54.282;10.078;2023-05-10T01:27:46;4.53;;;4.10;;
20073;SDS011;10197;54.282;10.078;2023-05-10T01:30:29;3.97;;;3.30;;
20073;SDS011;10197;54.282;10.078;2023-05-10T01:33:23;6.10;;;3.58;;
20073;SDS011;10197;54.282;10.078;2023-05-10T01:35:52;4.63;;;3.28;;
20073;SDS011;10197;54.282;10.078;2023-05-10T01:38:22;6.90;;;3.90;;
20073;SDS011;10197;54.282;10.078;2023-05-10T01:40:57;7.60;;;4.68;;
20073;SDS011;10197;54.282;10.078;2023-05-10T01:43:28;5.00;;;3.92;;
20073;SDS011;10197;54.282;10.078;2023-05-10T01:45:59;5.05;;;3.40;;
20073;SDS011;10197;54.282;10.078;2023-05-10T01:48:36;3.95;;;3.60;;
20073;SDS011;10197;54.282;10.078;2023-05-10T01:51:04;4.80;;;3.92;;
20073;SDS011;10197;54.282;10.078;2023-05-10T01:53:31;6.78;;;3.88;;
20073;SDS011;10197;54.282;10.078;2023-05-10T01:56:00;5.95;;;4.20;;
20073;SDS011;10197;54.282;10.078;2023-05-10T01:58:29;5.28;;;3.70;;
20073;SDS011;10197;54.282;10.078;2023-05-10T02:00:57;10.23;;;4.30;;
20073;SDS011;10197;54.282;10.078;2023-05-10T02:03:26;6.00;;;3.80;;
20073;SDS011;10197;54.282;10.078;2023-05-10T02:05:56;4.90;;;3.92;;
20073;SDS011;10197;54.282;10.078;2023-05-10T02:08:24;6.63;;;4.60;;
20073;SDS011;10197;54.282;10.078;2023-05-10T02:10:52;4.15;;;3.70;;
20073;SDS011;10197;54.282;10.078;2023-05-10T02:13:20;5.82;;;3.92;;
20073;SDS011;10197;54.282;10.078;2023-05-10T02:15:48;4.95;;;3.97;;
20073;SDS011;10197;54.282;10.078;2023-05-10T02:18:15;5.88;;;3.50;;
20073;SDS011;10197;54.282;10.078;2023-05-10T02:20:43;5.80;;;4.00;;
20073;SDS011;10197;54.282;10.078;2023-05-10T02:23:15;7.22;;;4.20;;
20073;SDS011;10197;54.282;10.078;2023-05-10T02:25:43;6.35;;;4.00;;
20073;SDS011;10197;54.282;10.078;2023-05-10T02:28:11;7.57;;;4.22;;
20073;SDS011;10197;54.282;10.078;2023-05-10T02:30:38;5.00;;;3.70;;
20073;SDS011;10197;54.282;10.078;2023-05-10T02:33:05;5.80;;;4.22;;
20073;SDS011;10197;54.282;10.078;2023-05-10T02:35:32;5.53;;;4.07;;
20073;SDS011;10197;54.282;10.078;2023-05-10T02:38:01;6.00;;;4.13;;
20073;SDS011;10197;54.282;10.078;2023-05-10T02:40:30;5.43;;;4.00;;
20073;SDS011;10197;54.282;10.078;2023-05-10T02:42:58;6.07;;;4.30;;
20073;SDS011;10197;54.282;10.078;2023-05-10T02:45:31;4.97;;;4.07;;
20073;SDS011;10197;54.282;10.078;2023-05-10T02:47:58;6.90;;;3.90;;
20073;SDS011;10197;54.282;10.078;2023-05-10T02:50:25;5.97;;;4.65;;
20073;SDS011;10197;54.282;10.078;2023-05-10T02:52:55;5.65;;;4.28;;
20073;SDS011;10197;54.282;10.078;2023-05-10T02:55:26;5.25;;;4.13;;
20073;SDS011;10197;54.282;10.078;2023-05-10T02:58:02;4.53;;;3.83;;
20073;SDS011;10197;54.282;10.078;2023-05-10T03:00:30;6.07;;;4.28;;
20073;SDS011;10197;54.282;10.078;2023-05-10T03:02:57;6.10;;;4.13;;
20073;SDS011;10197;54.282;10.078;2023-05-10T03:05:25;5.22;;;4.00;;
20073;SDS011;10197;54.282;10.078;2023-05-10T03:07:52;5.65;;;4.22;;
20073;SDS011;10197;54.282;10.078;2023-05-10T03:10:21;4.22;;;3.83;;
20073;SDS011;10197;54.282;10.078;2023-05-10T03:12:56;6.70;;;4.40;;
20073;SDS011;10197;54.282;10.078;2023-05-10T03:15:32;5.53;;;4.03;;
20073;SDS011;10197;54.282;10.078;2023-05-10T03:18:06;4.85;;;4.35;;
20073;SDS011;10197;54.282;10.078;2023-05-10T03:20:35;5.57;;;4.18;;
20073;SDS011;10197;54.282;10.078;2023-05-10T03:23:04;6.20;;;3.80;;
20073;SDS011;10197;54.282;10.078;2023-05-10T03:25:32;4.33;;;3.93;;
20073;SDS011;10197;54.282;10.078;2023-05-10T03:28:05;5.60;;;4.47;;
20073;SDS011;10197;54.282;10.078;2023-05-10T03:30:33;7.57;;;4.18;;
20073;SDS011;10197;54.282;10.078;2023-05-10T03:33:04;5.05;;;4.15;;
20073;SDS011;10197;54.282;10.078;2023-05-10T03:35:32;6.60;;;4.45;;
20073;SDS011;10197;54.282;10.078;2023-05-10T03:37:59;6.03;;;4.10;;
20073;SDS011;10197;54.282;10.078;2023-05-10T03:40:26;5.30;;;4.18;;
20073;SDS011;10197;54.282;10.078;2023-05-10T03:42:54;5.22;;;4.00;;
20073;SDS011;10197;54.282;10.078;2023-05-10T03:45:22;5.40;;;4.13;;
20073;SDS011;10197;54.282;10.078;2023-05-10T03:47:49;6.28;;;4.28;;
20073;SDS011;10197;54.282;10.078;2023-05-10T03:50:17;5.30;;;4.45;;
20073;SDS011;10197;54.282;10.078;2023-05-10T03:52:44;4.45;;;4.03;;
20073;SDS011;10197;54.282;10.078;2023-05-10T03:55:11;5.72;;;4.65;;
20073;SDS011;10197;54.282;10.078;2023-05-10T03:57:38;4.55;;;4.00;;
20073;SDS011;10197;54.282;10.078;2023-05-10T04:00:06;5.63;;;4.32;;
20073;SDS011;10197;54.282;10.078;2023-05-10T04:02:41;4.40;;;3.80;;
20073;SDS011;10197;54.282;10.078;2023-05-10T04:05:13;6.95;;;4.70;;
20073;SDS011;10197;54.282;10.078;2023-05-10T04:07:40;5.53;;;4.90;;
20073;SDS011;10197;54.282;10.078;2023-05-10T04:10:10;5.75;;;4.45;;
20073;SDS011;10197;54.282;10.078;2023-05-10T04:12:37;5.75;;;3.67;;
20073;SDS011;10197;54.282;10.078;2023-05-10T04:15:05;7.15;;;4.40;;
20073;SDS011;10197;54.282;10.078;2023-05-10T04:17:32;6.97;;;4.70;;
20073;SDS011;10197;54.282;10.078;2023-05-10T04:20:01;5.78;;;4.35;;
20073;SDS011;10197;54.282;10.078;2023-05-10T04:22:29;6.15;;;4.40;;
20073;SDS011;10197;54.282;10.078;2023-05-10T04:24:56;6.75;;;4.65;;
20073;SDS011;10197;54.282;10.078;2023-05-10T04:27:23;5.72;;;4.55;;
20073;SDS011;10197;54.282;10.078;2023-05-10T04:29:49;5.65;;;4.82;;
20073;SDS011;10197;54.282;10.078;2023-05-10T04:32:16;4.80;;;4.20;;
20073;SDS011;10197;54.282;10.078;2023-05-10T04:34:44;5.03;;;4.53;;
20073;SDS011;10197;54.282;10.078;2023-05-10T04:37:12;4.97;;;4.35;;
20073;SDS011;10197;54.282;10.078;2023-05-10T04:39:39;5.18;;;4.47;;
20073;SDS011;10197;54.282;10.078;2023-05-10T04:42:06;5.10;;;4.45;;
20073;SDS011;10197;54.282;10.078;2023-05-10T04:44:32;8.07;;;4.90;;
20073;SDS011;10197;54.282;10.078;2023-05-10T04:46:59;5.53;;;4.43;;
20073;SDS011;10197;54.282;10.078;2023-05-10T04:49:27;5.85;;;4.10;;
20073;SDS011;10197;54.282;10.078;2023-05-10T04:51:54;5.55;;;4.05;;
20073;SDS011;10197;54.282;10.078;2023-05-10T04:54:23;5.55;;;4.57;;
20073;SDS011;10197;54.282;10.078;2023-05-10T04:56:50;5.03;;;4.53;;
20073;SDS011;10197;54.282;10.078;2023-05-10T04:59:16;5.97;;;5.03;;
20073;SDS011;10197;54.282;10.078;2023-05-10T05:01:43;5.25;;;4.68;;
20073;SDS011;10197;54.282;10.078;2023-05-10T05:04:10;5.70;;;4.90;;
20073;SDS011;10197;54.282;10.078;2023-05-10T05:06:37;5.07;;;4.47;;
20073;SDS011;10197;54.282;10.078;2023-05-10T05:09:04;6.63;;;4.63;;
20073;SDS011;10197;54.282;10.078;2023-05-10T05:11:32;6.55;;;4.75;;
20073;SDS011;10197;54.282;10.078;2023-05-10T05:13:59;4.78;;;4.32;;
20073;SDS011;10197;54.282;10.078;2023-05-10T05:16:26;5.22;;;4.72;;
20073;SDS011;10197;54.282;10.078;2023-05-10T05:18:52;6.60;;;4.38;;
20073;SDS011;10197;54.282;10.078;2023-05-10T05:21:20;5.68;;;5.00;;
20073;SDS011;10197;54.282;10.078;2023-05-10T05:23:47;9.55;;;4.50;;
20073;SDS011;10197;54.282;10.078;2023-05-10T05:26:15;6.38;;;4.93;;
20073;SDS011;10197;54.282;10.078;2023-05-10T05:28:45;5.18;;;4.55;;
20073;SDS011;10197;54.282;10.078;2023-05-10T05:31:17;9.30;;;5.22;;
20073;SDS011;10197;54.282;10.078;2023-05-10T05:33:53;8.40;;;5.10;;
20073;SDS011;10197;54.282;10.078;2023-05-10T05:36:20;6.70;;;4.85;;
20073;SDS011;10197;54.282;10.078;2023-05-10T05:38:47;6.97;;;4.28;;
20073;SDS011;10197;54.282;10.078;2023-05-10T05:41:14;7.63;;;4.82;;
20073;SDS011;10197;54.282;10.078;2023-05-10T05:43:41;6.65;;;4.65;;
20073;SDS011;10197;54.282;10.078;2023-05-10T05:46:10;6.38;;;5.22;;
20073;SDS011;10197;54.282;10.078;2023-05-10T05:48:37;5.32;;;4.72;;
20073;SDS011;10197;54.282;10.078;2023-05-10T05:51:03;8.38;;;4.97;;
20073;SDS011;10197;54.282;10.078;2023-05-10T05:53:34;5.55;;;4.80;;
20073;SDS011;10197;54.282;10.078;2023-05-10T05:56:01;7.45;;;5.00;;
20073;SDS011;10197;54.282;10.078;2023-05-10T05:58:28;6.30;;;5.00;;
20073;SDS011;10197;54.282;10.078;2023-05-10T06:00:55;6.55;;;4.95;;
20073;SDS011;10197;54.282;10.078;2023-05-10T06:03:23;5.88;;;4.57;;
20073;SDS011;10197;54.282;10.078;2023-05-10T06:05:50;6.03;;;4.90;;
20073;SDS011;10197;54.282;10.078;2023-05-10T06:08:17;5.15;;;4.65;;
20073;SDS011;10197;54.282;10.078;2023-05-10T06:10:44;5.45;;;4.90;;
20073;SDS011;10197;54.282;10.078;2023-05-10T06:13:11;4.95;;;4.47;;
20073;SDS011;10197;54.282;10.078;2023-05-10T06:15:38;5.43;;;4.90;;
20073;SDS011;10197;54.282;10.078;2023-05-10T06:18:04;5.40;;;4.90;;
20073;SDS011;10197;54.282;10.078;2023-05-10T06:20:33;6.95;;;4.90;;
20073;SDS011;10197;54.282;10.078;2023-05-10T06:23:00;6.22;;;4.82;;
20073;SDS011;10197;54.282;10.078;2023-05-10T06:25:27;7.47;;;5.00;;
20073;SDS011;10197;54.282;10.078;2023-05-10T06:27:54;7.07;;;4.85;;
20073;SDS011;10197;54.282;10.078;2023-05-10T06:30:23;4.90;;;4.50;;
20073;SDS011;10197;54.282;10.078;2023-05-10T06:32:53;7.05;;;4.78;;
20073;SDS011;10197;54.282;10.078;2023-05-10T06:35:20;7.82;;;5.18;;
20073;SDS011;10197;54.282;10.078;2023-05-10T06:37:49;9.18;;;5.30;;
20073;SDS011;10197;54.282;10.078;2023-05-10T06:40:16;5.30;;;4.50;;
20073;SDS011;10197;54.282;10.078;2023-05-10T06:42:43;5.72;;;4.65;;
20073;SDS011;10197;54.282;10.078;2023-05-10T06:45:11;6.95;;;5.32;;
20073;SDS011;10197;54.282;10.078;2023-05-10T06:47:38;6.63;;;4.82;;
20073;SDS011;10197;54.282;10.078;2023-05-10T06:50:06;6.00;;;5.20;;
20073;SDS011;10197;54.282;10.078;2023-05-10T06:52:33;5.00;;;4.50;;
20073;SDS011;10197;54.282;10.078;2023-05-10T06:55:03;5.97;;;5.00;;
20073;SDS011;10197;54.282;10.078;2023-05-10T06:57:30;5.95;;;4.50;;
20073;SDS011;10197;54.282;10.078;2023-05-10T06:59:57;5.82;;;4.60;;
20073;SDS011;10197;54.282;10.078;2023-05-10T07:02:24;4.78;;;4.35;;
20073;SDS011;10197;54.282;10.078;2023-05-10T07:04:51;6.75;;;5.80;;
20073;SDS011;10197;54.282;10.078;2023-05-10T07:07:18;8.88;;;4.80;;
20073;SDS011;10197;54.282;10.078;2023-05-10T07:09:45;5.05;;;4.53;;
20073;SDS011;10197;54.282;10.078;2023-05-10T07:12:13;5.20;;;4.47;;
20073;SDS011;10197;54.282;10.078;2023-05-10T07:14:40;8.05;;;5.00;;
20073;SDS011;10197;54.282;10.078;2023-05-10T07:17:07;5.80;;;4.63;;
20073;SDS011;10197;54.282;10.078;2023-05-10T07:19:35;6.97;;;4.72;;
20073;SDS011;10197;54.282;10.078;2023-05-10T07:22:02;7.15;;;4.65;;
20073;SDS011;10197;54.282;10.078;2023-05-10T07:24:29;6.22;;;4.97;;
20073;SDS011;10197;54.282;10.078;2023-05-10T07:26:56;5.43;;;4.60;;
20073;SDS011;10197;54.282;10.078;2023-05-10T07:29:25;5.68;;;4.45;;
20073;SDS011;10197;54.282;10.078;2023-05-10T07:31:52;5.43;;;4.93;;
20073;SDS011;10197;54.282;10.078;2023-05-10T07:34:19;5.70;;;5.20;;
20073;SDS011;10197;54.282;10.078;2023-05-10T07:36:46;5.55;;;5.05;;
20073;SDS011;10197;54.282;10.078;2023-05-10T07:39:12;4.57;;;4.18;;
20073;SDS011;10197;54.282;10.078;2023-05-10T07:41:39;6.47;;;5.00;;
20073;SDS011;10197;54.282;10.078;2023-05-10T07:44:06;6.03;;;5.05;;
20073;SDS011;10197;54.282;10.078;2023-05-10T07:46:34;8.07;;;5.38;;
20073;SDS011;10197;54.282;10.078;2023-05-10T07:49:01;8.30;;;5.00;;
20073;SDS011;10197;54.282;10.078;2023-05-10T07:51:28;9.25;;;4.85;;
20073;SDS011;10197;54.282;10.078;2023-05-10T07:53:55;7.65;;;5.18;;
20073;SDS011;10197;54.282;10.078;2023-05-10T07:56:23;5.13;;;4.60;;
20073;SDS011;10197;54.282;10.078;2023-05-10T07:58:52;9.88;;;5.38;;
20073;SDS011;10197;54.282;10.078;2023-05-10T08:01:20;6.18;;;5.00;;
20073;SDS011;10197;54.282;10.078;2023-05-10T08:03:48;9.23;;;5.43;;
20073;SDS011;10197;54.282;10.078;2023-05-10T08:06:16;6.18;;;5.10;;
20073;SDS011;10197;54.282;10.078;2023-05-10T08:08:43;5.68;;;4.70;;
20073;SDS011;10197;54.282;10.078;2023-05-10T08:11:14;6.93;;;4.80;;
20073;SDS011;10197;54.282;10.078;2023-05-10T08:13:41;9.23;;;5.25;;
20073;SDS011;10197;54.282;10.078;2023-05-10T08:16:08;6.35;;;4.88;;
20073;SDS011;10197;54.282;10.078;2023-05-10T08:18:35;7.20;;;5.40;;
20073;SDS011;10197;54.282;10.078;2023-05-10T08:21:05;6.00;;;5.22;;
20073;SDS011;10197;54.282;10.078;2023-05-10T08:23:32;7.75;;;5.32;;
20073;SDS011;10197;54.282;10.078;2023-05-10T08:25:58;7.07;;;5.10;;
20073;SDS011;10197;54.282;10.078;2023-05-10T08:28:25;6.20;;;5.03;;
20073;SDS011;10197;54.282;10.078;2023-05-10T08:30:52;7.97;;;5.38;;
20073;SDS011;10197;54.282;10.078;2023-05-10T08:33:19;5.80;;;5.18;;
20073;SDS011;10197;54.282;10.078;2023-05-10T08:35:46;6.95;;;5.30;;
20073;SDS011;10197;54.282;10.078;2023-05-10T08:38:14;10.00;;;7.97;;
20073;SDS011;10197;54.282;10.078;2023-05-10T08:40:41;7.80;;;5.38;;
20073;SDS011;10197;54.282;10.078;2023-05-10T08:43:10;6.82;;;5.07;;
20073;SDS011;10197;54.282;10.078;2023-05-10T08:45:38;6.70;;;5.40;;
20073;SDS011;10197;54.282;10.078;2023-05-10T08:48:06;7.35;;;4.95;;
20073;SDS011;10197;54.282;10.078;2023-05-10T08:50:33;6.88;;;5.10;;
20073;SDS011;10197;54.282;10.078;2023-05-10T08:53:04;6.80;;;4.95;;
20073;SDS011;10197;54.282;10.078;2023-05-10T08:55:34;6.22;;;5.57;;
20073;SDS011;10197;54.282;10.078;2023-05-10T08:58:02;7.45;;;5.57;;
20073;SDS011;10197;54.282;10.078;2023-05-10T09:00:29;7.82;;;5.95;;
20073;SDS011;10197;54.282;10.078;2023-05-10T09:02:56;7.93;;;5.22;;
20073;SDS011;10197;54.282;10.078;2023-05-10T09:05:23;6.60;;;5.05;;
20073;SDS011;10197;54.282;10.078;2023-05-10T09:07:50;7.90;;;5.35;;
20073;SDS011;10197;54.282;10.078;2023-05-10T09:10:18;5.53;;;5.00;;
20073;SDS011;10197;54.282;10.078;2023-05-10T09:12:46;10.13;;;5.28;;
20073;SDS011;10197;54.282;10.078;2023-05-10T09:15:15;6.32;;;4.90;;
20073;SDS011;10197;54.282;10.078;2023-05-10T09:17:44;5.97;;;5.07;;
20073;SDS011;10197;54.282;10.078;2023-05-10T09:20:12;5.70;;;5.20;;
20073;SDS011;10197;54.282;10.078;2023-05-10T09:22:39;7.25;;;4.78;;
20073;SDS011;10197;54.282;10.078;2023-05-10T09:25:06;6.97;;;5.28;;
20073;SDS011;10197;54.282;10.078;2023-05-10T09:27:35;8.95;;;5.25;;
20073;SDS011;10197;54.282;10.078;2023-05-10T09:30:03;7.93;;;5.60;;
20073;SDS011;10197;54.282;10.078;2023-05-10T09:32:38;5.90;;;5.30;;
20073;SDS011;10197;54.282;10.078;2023-05-10T09:35:06;5.75;;;5.07;;
20073;SDS011;10197;54.282;10.078;2023-05-10T09:37:34;10.75;;;7.30;;
20073;SDS011;10197;54.282;10.078;2023-05-10T09:40:03;11.70;;;5.18;;
20073;SDS011;10197;54.282;10.078;2023-05-10T09:42:31;6.43;;;5.55;;
20073;SDS011;10197;54.282;10.078;2023-05-10T09:45:00;5.68;;;5.05;;
20073;SDS011;10197;54.282;10.078;2023-05-10T09:47:29;7.18;;;5.13;;
20073;SDS011;10197;54.282;10.078;2023-05-10T09:49:58;6.05;;;5.18;;
20073;SDS011;10197;54.282;10.078;2023-05-10T09:52:28;6.45;;;4.82;;
20073;SDS011;10197;54.282;10.078;2023-05-10T09:54:55;5.60;;;5.07;;
20073;SDS011;10197;54.282;10.078;2023-05-10T09:57:23;7.82;;;5.20;;
20073;SDS011;10197;54.282;10.078;2023-05-10T09:59:50;7.15;;;5.15;;
20073;SDS011;10197;54.282;10.078;2023-05-10T10:02:19;6.43;;;4.85;;
20073;SDS011;10197;54.282;10.078;2023-05-10T10:04:50;6.43;;;5.35;;
20073;SDS011;10197;54.282;10.078;2023-05-10T10:07:21;5.38;;;4.75;;
20073;SDS011;10197;54.282;10.078;2023-05-10T10:09:50;7.13;;;4.60;;
20073;SDS011;10197;54.282;10.078;2023-05-10T10:12:16;7.00;;;5.97;;
20073;SDS011;10197;54.282;10.078;2023-05-10T10:14:45;5.72;;;5.13;;
20073;SDS011;10197;54.282;10.078;2023-05-10T10:17:12;6.80;;;5.28;;
20073;SDS011;10197;54.282;10.078;2023-05-10T10:19:40;7.15;;;5.05;;
20073;SDS011;10197;54.282;10.078;2023-05-10T10:22:09;6.25;;;4.50;;
20073;SDS011;10197;54.282;10.078;2023-05-10T10:24:37;5.80;;;4.82;;
20073;SDS011;10197;54.282;10.078;2023-05-10T10:27:08;6.25;;;4.88;;
20073;SDS011;10197;54.282;10.078;2023-05-10T10:29:43;7.30;;;4.80;;
20073;SDS011;10197;54.282;10.078;2023-05-10T10:32:19;9.48;;;5.82;;
20073;SDS011;10197;54.282;10.078;2023-05-10T10:34:48;5.78;;;5.18;;
20073;SDS011;10197;54.282;10.078;2023-05-10T10:37:17;5.38;;;4.80;;
20073;SDS011;10197;54.282;10.078;2023-05-10T10:39:44;7.15;;;5.00;;
20073;SDS011;10197;54.282;10.078;2023-05-10T10:42:11;6.40;;;5.00;;
20073;SDS011;10197;54.282;10.078;2023-05-10T10:44:38;6.07;;;5.47;;
20073;SDS011;10197;54.282;10.078;2023-05-10T10:50:02;6.18;;;5.03;;
20073;SDS011;10197;54.282;10.078;2023-05-10T10:52:32;5.93;;;5.10;;
20073;SDS011;10197;54.282;10.078;2023-05-10T10:55:00;6.55;;;5.85;;
20073;SDS011;10197;54.282;10.078;2023-05-10T10:57:31;6.80;;;4.50;;
20073;SDS011;10197;54.282;10.078;2023-05-10T11:02:45;5.50;;;4.88;;
20073;SDS011;10197;54.282;10.078;2023-05-10T11:05:23;5.55;;;4.50;;
20073;SDS011;10197;54.282;10.078;2023-05-10T11:07:52;5.53;;;5.00;;
20073;SDS011;10197;54.282;10.078;2023-05-10T11:10:20;7.05;;;4.88;;
20073;SDS011;10197;54.282;10.078;2023-05-10T11:12:51;6.70;;;4.75;;
20073;SDS011;10197;54.282;10.078;2023-05-10T11:15:19;7.88;;;5.00;;
20073;SDS011;10197;54.282;10.078;2023-05-10T11:17:47;7.22;;;4.68;;
20073;SDS011;10197;54.282;10.078;2023-05-10T11:20:17;7.93;;;4.85;;
20073;SDS011;10197;54.282;10.078;2023-05-10T11:22:52;6.85;;;5.38;;
20073;SDS011;10197;54.282;10.078;2023-05-10T11:25:22;7.18;;;4.72;;
20073;SDS011;10197;54.282;10.078;2023-05-10T11:27:53;6.50;;;4.50;;
20073;SDS011;10197;54.282;10.078;2023-05-10T11:30:20;8.02;;;5.13;;
20073;SDS011;10197;54.282;10.078;2023-05-10T11:32:47;7.20;;;5.43;;
20073;SDS011;10197;54.282;10.078;2023-05-10T11:35:14;6.13;;;4.97;;
20073;SDS011;10197;54.282;10.078;2023-05-10T11:37:41;7.03;;;5.15;;
20073;SDS011;10197;54.282;10.078;2023-05-10T11:40:11;6.72;;;5.53;;
20073;SDS011;10197;54.282;10.078;2023-05-10T11:42:38;5.60;;;4.68;;
20073;SDS011;10197;54.282;10.078;2023-05-10T11:45:06;8.38;;;4.97;;
20073;SDS011;10197;54.282;10.078;2023-05-10T11:47:34;5.80;;;5.20;;
20073;SDS011;10197;54.282;10.078;2023-05-10T11:50:03;6.32;;;5.20;;
20073;SDS011;10197;54.282;10.078;2023-05-10T11:52:36;5.35;;;4.80;;
20073;SDS011;10197;54.282;10.078;2023-05-10T11:55:15;8.27;;;5.40;;
20073;SDS011;10197;54.282;10.078;2023-05-10T11:58:02;6.82;;;5.05;;
20073;SDS011;10197;54.282;10.078;2023-05-10T12:00:43;8.52;;;5.13;;
20073;SDS011;10197;54.282;10.078;2023-05-10T12:03:10;7.95;;;5.75;;
20073;SDS011;10197;54.282;10.078;2023-05-10T12:05:37;6.57;;;5.97;;
20073;SDS011;10197;54.282;10.078;2023-05-10T12:08:13;6.30;;;5.38;;
20073;SDS011;10197;54.282;10.078;2023-05-10T12:10:41;6.50;;;5.82;;
20073;SDS011;10197;54.282;10.078;2023-05-10T12:13:18;8.13;;;7.20;;
20073;SDS011;10197;54.282;10.078;2023-05-10T12:16:06;10.10;;;6.90;;
20073;SDS011;10197;54.282;10.078;2023-05-10T12:18:49;9.95;;;7.60;;
20073;SDS011;10197;54.282;10.078;2023-05-10T12:21:29;7.75;;;6.93;;
20073;SDS011;10197;54.282;10.078;2023-05-10T12:24:00;10.48;;;8.32;;
20073;SDS011;10197;54.282;10.078;2023-05-10T12:26:32;12.68;;;9.10;;
20073;SDS011;10197;54.282;10.078;2023-05-10T12:29:16;9.73;;;8.80;;
20073;SDS011;10197;54.282;10.078;2023-05-10T12:31:50;9.60;;;8.38;;
20073;SDS011;10197;54.282;10.078;2023-05-10T12:34:30;12.10;;;8.90;;
20073;SDS011;10197;54.282;10.078;2023-05-10T12:36:58;11.90;;;9.63;;
20073;SDS011;10197;54.282;10.078;2023-05-10T12:39:24;11.25;;;10.07;;
20073;SDS011;10197;54.282;10.078;2023-05-10T12:41:55;11.52;;;10.32;;
20073;SDS011;10197;54.282;10.078;2023-05-10T12:44:22;14.00;;;11.45;;
20073;SDS011;10197;54.282;10.078;2023-05-10T12:46:49;12.77;;;11.13;;
20073;SDS011;10197;54.282;10.078;2023-05-10T12:49:17;15.25;;;12.23;;
20073;SDS011;10197;54.282;10.078;2023-05-10T12:51:45;14.25;;;12.85;;
20073;SDS011;10197;54.282;10.078;2023-05-10T12:54:13;15.70;;;13.30;;
20073;SDS011;10197;54.282;10.078;2023-05-10T12:56:39;16.17;;;13.10;;
20073;SDS011;10197;54.282;10.078;2023-05-10T12:59:09;15.02;;;12.68;;
20073;SDS011;10197;54.282;10.078;2023-05-10T13:01:36;13.23;;;11.52;;
20073;SDS011;10197;54.282;10.078;2023-05-10T13:04:02;14.82;;;13.23;;
20073;SDS011;10197;54.282;10.078;2023-05-10T13:06:29;14.65;;;13.13;;
20073;SDS011;10197;54.282;10.078;2023-05-10T13:08:57;12.10;;;10.85;;
20073;SDS011;10197;54.282;10.078;2023-05-10T13:11:23;13.77;;;12.02;;
20073;SDS011;10197;54.282;10.078;2023-05-10T13:13:50;13.75;;;11.93;;
20073;SDS011;10197;54.282;10.078;2023-05-10T13:16:19;13.38;;;11.93;;
20073;SDS011;10197;54.282;10.078;2023-05-10T13:18:46;15.27;;;11.60;;
20073;SDS011;10197;54.282;10.078;2023-05-10T13:21:13;15.45;;;12.68;;
20073;SDS011;10197;54.282;10.078;2023-05-10T13:23:40;13.02;;;10.75;;
20073;SDS011;10197;54.282;10.078;2023-05-10T13:26:07;13.35;;;11.80;;
20073;SDS011;10197;54.282;10.078;2023-05-10T13:28:33;13.45;;;12.07;;
20073;SDS011;10197;54.282;10.078;2023-05-10T13:31:00;14.25;;;11.82;;
20073;SDS011;10197;54.282;10.078;2023-05-10T13:33:28;11.77;;;10.52;;
20073;SDS011;10197;54.282;10.078;2023-05-10T13:35:55;13.32;;;11.65;;
20073;SDS011;10197;54.282;10.078;2023-05-10T13:38:23;11.13;;;8.88;;
20073;SDS011;10197;54.282;10.078;2023-05-10T13:40:49;12.23;;;10.95;;
20073;SDS011;10197;54.282;10.078;2023-05-10T13:43:17;12.93;;;11.60;;
20073;SDS011;10197;54.282;10.078;2023-05-10T13:45:44;13.05;;;10.43;;
20073;SDS011;10197;54.282;10.078;2023-05-10T13:48:12;13.50;;;11.15;;
20073;SDS011;10197;54.282;10.078;2023-05-10T13:50:40;12.68;;;10.70;;
20073;SDS011;10197;54.282;10.078;2023-05-10T13:53:07;11.55;;;10.45;;
20073;SDS011;10197;54.282;10.078;2023-05-10T13:55:33;10.48;;;9.35;;
20073;SDS011;10197;54.282;10.078;2023-05-10T13:58:01;10.52;;;9.43;;
20073;SDS011;10197;54.282;10.078;2023-05-10T14:00:27;11.45;;;10.38;;
20073;SDS011;10197;54.282;10.078;2023-05-10T14:02:56;10.77;;;9.60;;
20073;SDS011;10197;54.282;10.078;2023-05-10T14:05:23;10.63;;;9.20;;
20073;SDS011;10197;54.282;10.078;2023-05-10T14:07:51;11.48;;;10.30;;
20073;SDS011;10197;54.282;10.078;2023-05-10T14:10:18;10.95;;;9.55;;
20073;SDS011;10197;54.282;10.078;2023-05-10T14:12:45;12.40;;;11.10;;
20073;SDS011;10197;54.282;10.078;2023-05-10T14:15:12;12.73;;;10.20;;
20073;SDS011;10197;54.282;10.078;2023-05-10T14:17:39;15.55;;;10.55;;
20073;SDS011;10197;54.282;10.078;2023-05-10T14:20:06;11.32;;;10.18;;
20073;SDS011;10197;54.282;10.078;2023-05-10T14:22:34;12.30;;;11.07;;
20073;SDS011;10197;54.282;10.078;2023-05-10T14:25:02;15.98;;;10.88;;
20073;SDS011;10197;54.282;10.078;2023-05-10T14:27:29;11.60;;;10.32;;
20073;SDS011;10197;54.282;10.078;2023-05-10T14:29:56;12.02;;;10.80;;
20073;SDS011;10197;54.282;10.078;2023-05-10T14:32:23;11.25;;;9.80;;
20073;SDS011;10197;54.282;10.078;2023-05-10T14:34:52;12.63;;;9.82;;
20073;SDS011;10197;54.282;10.078;2023-05-10T14:37:19;10.60;;;9.57;;
20073;SDS011;10197;54.282;10.078;2023-05-10T14:39:46;11.43;;;10.32;;
20073;SDS011;10197;54.282;10.078;2023-05-10T14:42:14;10.90;;;9.80;;
20073;SDS011;10197;54.282;10.078;2023-05-10T14:44:41;9.88;;;8.85;;